createdAt,value
2022-11-10T10:07:12.068Z,3.15
2022-11-10T10:09:59.913Z,3.20
2022-11-10T10:12:40.608Z,2.40
2022-11-10T10:15:55.240Z,2.38
2022-11-10T10:18:30.967Z,2.30
2022-11-10T10:21:15.918Z,2.45
2022-11-10T10:26:51.434Z,3.13
2022-11-10T10:29:24.850Z,2.25
2022-11-10T10:31:53.141Z,2.53
2022-11-10T10:34:27.230Z,2.65
2022-11-10T10:36:54.006Z,2.72
2022-11-10T10:39:41.733Z,2.55
2022-11-10T10:42:26.047Z,2.30
2022-11-10T10:45:12.115Z,2.17
2022-11-10T10:47:39.522Z,2.95
2022-11-10T10:50:28.281Z,2.47
2022-11-10T10:53:15.436Z,2.80
2022-11-10T10:55:54.771Z,2.50
2022-11-10T10:58:34.684Z,2.28
2022-11-10T11:01:31.951Z,2.70
2022-11-10T11:03:59.949Z,3.20
2022-11-10T11:06:31.515Z,2.65
2022-11-10T11:08:59.739Z,2.83
2022-11-10T11:11:41.505Z,2.83
2022-11-10T11:14:21.712Z,2.92
2022-11-10T11:16:54.904Z,3.58
2022-11-10T11:19:24.687Z,2.65
2022-11-10T11:22:12.873Z,2.85
2022-11-10T11:24:45.281Z,2.53
2022-11-10T11:27:42.889Z,3.03
2022-11-10T11:30:18.373Z,3.03
2022-11-10T11:33:27.954Z,2.55
2022-11-10T11:36:36.965Z,2.75
2022-11-10T11:39:25.321Z,3.15
2022-11-10T11:42:23.824Z,2.65
2022-11-10T11:45:18.718Z,2.63
2022-11-10T11:48:04.959Z,3.05
2022-11-10T11:50:45.821Z,3.03
2022-11-10T11:53:34.018Z,2.65
2022-11-10T11:56:19.714Z,2.75
2022-11-10T11:59:01.635Z,2.72
2022-11-10T12:01:53.203Z,2.75
2022-11-10T12:04:31.630Z,2.45
2022-11-10T12:07:07.202Z,3.03
2022-11-10T12:09:47.848Z,2.90
2022-11-10T12:12:28.969Z,3.15
2022-11-10T12:15:15.935Z,2.78
2022-11-10T12:18:13.366Z,2.50
2022-11-10T12:20:53.930Z,2.65
2022-11-10T12:23:26.497Z,2.50
2022-11-10T12:26:16.545Z,2.70
2022-11-10T12:28:49.387Z,2.20
2022-11-10T12:31:20.589Z,2.20
2022-11-10T12:34:10.740Z,2.60
2022-11-10T12:36:40.457Z,2.15
2022-11-10T12:39:29.591Z,2.65
2022-11-10T12:41:59.897Z,2.50
2022-11-10T12:44:41.110Z,1.90
2022-11-10T12:47:15.459Z,2.00
2022-11-10T12:49:54.148Z,2.25
2022-11-10T12:52:44.722Z,2.17
2022-11-10T12:55:15.031Z,2.30
2022-11-10T12:57:43.978Z,2.95
2022-11-10T13:00:27.954Z,2.13
2022-11-10T13:02:56.801Z,2.83
2022-11-10T13:05:34.369Z,1.60
2022-11-10T13:08:15.158Z,2.00
2022-11-10T13:11:01.031Z,1.83
2022-11-10T13:13:28.386Z,1.67
2022-11-10T13:15:57.206Z,2.15
2022-11-10T13:18:29.916Z,2.15
2022-11-10T13:20:59.043Z,1.90
2022-11-10T13:23:42.315Z,2.03
2022-11-10T13:26:32.797Z,2.22
2022-11-10T13:29:02.489Z,1.88
2022-11-10T13:31:29.269Z,2.03
2022-11-10T13:34:08.155Z,1.90
2022-11-10T13:36:46.600Z,1.80
2022-11-10T13:39:19.538Z,1.45
2022-11-10T13:41:47.050Z,2.42
2022-11-10T13:44:42.078Z,1.95
2022-11-10T13:47:08.774Z,2.38
2022-11-10T13:49:56.412Z,1.40
2022-11-10T13:52:44.985Z,1.95
2022-11-10T13:55:39.671Z,1.95
2022-11-10T13:58:10.665Z,2.10
2022-11-10T14:00:37.544Z,2.38
2022-11-10T14:03:06.480Z,2.00
2022-11-10T14:05:37.882Z,2.50
2022-11-10T14:08:14.411Z,2.42
2022-11-10T14:10:59.708Z,2.08
2022-11-10T14:13:44.781Z,2.13
2022-11-10T14:16:32.511Z,2.78
2022-11-10T14:19:04.277Z,1.60
2022-11-10T14:21:58.025Z,1.90
2022-11-10T14:24:30.379Z,2.00
2022-11-10T14:27:13.076Z,2.08
2022-11-10T14:29:40.631Z,1.98
2022-11-10T14:32:21.885Z,1.83
2022-11-10T14:34:50.766Z,1.75
2022-11-10T14:37:24.177Z,1.58
2022-11-10T14:39:54.779Z,1.58
2022-11-10T14:42:31.028Z,1.70
2022-11-10T14:45:15.943Z,2.03
2022-11-10T14:47:43.055Z,2.22
2022-11-10T14:50:32.629Z,1.60
2022-11-10T14:53:04.080Z,2.05
2022-11-10T14:55:34.894Z,2.38
2022-11-10T14:58:08.292Z,1.80
2022-11-10T15:00:38.065Z,1.92
2022-11-10T15:03:07.548Z,1.73
2022-11-10T15:05:34.905Z,2.10
2022-11-10T15:08:04.006Z,1.92
2022-11-10T15:10:50.633Z,1.80
2022-11-10T15:13:38.934Z,1.77
2022-11-10T15:16:21.870Z,1.85
2022-11-10T15:18:51.064Z,1.63
2022-11-10T15:21:20.055Z,2.50
2022-11-10T15:23:55.606Z,2.20
2022-11-10T15:26:23.674Z,1.98
2022-11-10T15:28:51.303Z,1.65
2022-11-10T15:31:25.151Z,1.77
2022-11-10T15:34:05.548Z,2.28
2022-11-10T15:36:35.656Z,2.00
2022-11-10T15:39:23.310Z,1.95
2022-11-10T15:41:57.016Z,1.90
2022-11-10T15:44:26.219Z,2.25
2022-11-10T15:46:54.731Z,2.05
2022-11-10T15:49:28.005Z,2.28
2022-11-10T15:52:15.207Z,2.15
2022-11-10T15:54:43.340Z,2.00
2022-11-10T15:57:12.435Z,2.10
2022-11-10T15:59:39.330Z,1.92
2022-11-10T16:02:32.415Z,1.67
2022-11-10T16:05:00.133Z,1.73
2022-11-10T16:07:31.231Z,2.50
2022-11-10T16:09:57.906Z,1.98
2022-11-10T16:12:24.522Z,2.50
2022-11-10T16:14:52.903Z,3.63
2022-11-10T16:17:19.691Z,2.00
2022-11-10T16:19:47.189Z,1.95
2022-11-10T16:22:14.454Z,1.90
2022-11-10T16:24:42.416Z,2.10
2022-11-10T16:27:14.782Z,1.50
2022-11-10T16:29:42.768Z,1.67
2022-11-10T16:32:11.685Z,1.70
2022-11-10T16:34:38.587Z,1.52
2022-11-10T16:37:05.382Z,2.58
2022-11-10T16:39:32.050Z,1.95
2022-11-10T16:41:58.661Z,2.13
2022-11-10T16:44:25.657Z,2.20
2022-11-10T16:46:55.863Z,2.05
2022-11-10T16:49:31.569Z,1.83
2022-11-10T16:51:58.273Z,1.60
2022-11-10T16:54:25.067Z,1.98
2022-11-10T16:56:51.785Z,1.77
2022-11-10T16:59:18.399Z,1.85
2022-11-10T17:01:46.621Z,2.13
2022-11-10T17:04:14.105Z,2.03
2022-11-10T17:06:40.841Z,2.05
2022-11-10T17:09:17.651Z,2.08
2022-11-10T17:11:44.362Z,1.83
2022-11-10T17:14:12.965Z,1.50
2022-11-10T17:16:43.385Z,1.73
2022-11-10T17:19:17.779Z,2.65
2022-11-10T17:21:45.402Z,7.72
2022-11-10T17:24:14.139Z,11.25
2022-11-10T17:26:41.438Z,13.75
2022-11-10T17:29:15.779Z,5.68
2022-11-10T17:34:12.866Z,2.47
2022-11-10T17:36:40.139Z,2.72
2022-11-10T17:39:06.994Z,10.50
2022-11-10T17:41:34.205Z,7.45
2022-11-10T17:44:01.096Z,5.43
2022-11-10T17:46:27.761Z,6.82
2022-11-10T17:49:00.094Z,3.15
2022-11-10T17:51:32.783Z,4.03
2022-11-10T17:54:04.604Z,4.05
2022-11-10T17:56:32.632Z,3.13
2022-11-10T17:58:59.659Z,4.20
2022-11-10T18:01:26.424Z,2.53
2022-11-10T18:03:53.167Z,2.45
2022-11-10T18:06:21.039Z,2.95
2022-11-10T18:08:48.161Z,2.50
2022-11-10T18:11:17.497Z,2.63
2022-11-10T18:13:44.832Z,2.28
2022-11-10T18:16:13.834Z,1.95
2022-11-10T18:18:41.373Z,2.42
2022-11-10T18:21:08.398Z,2.75
2022-11-10T18:23:35.010Z,1.42
2022-11-10T18:26:05.901Z,2.03
2022-11-10T18:28:33.811Z,2.30
2022-11-10T18:31:08.257Z,2.47
2022-11-10T18:33:36.761Z,2.30
2022-11-10T18:36:03.948Z,2.20
2022-11-10T18:38:30.566Z,3.03
2022-11-10T18:41:22.514Z,2.38
2022-11-10T18:43:49.127Z,3.30
2022-11-10T18:46:15.782Z,3.30
2022-11-10T18:48:42.925Z,3.00
2022-11-10T18:51:09.599Z,2.50
2022-11-10T18:53:38.378Z,2.38
2022-11-10T18:56:05.487Z,2.30
2022-11-10T18:58:32.200Z,2.75
2022-11-10T19:01:06.390Z,2.35
2022-11-10T19:03:34.871Z,2.35
2022-11-10T19:06:01.735Z,3.22
2022-11-10T19:08:29.129Z,2.30
2022-11-10T19:10:56.953Z,3.20
2022-11-10T19:13:24.324Z,3.63
2022-11-10T19:15:51.373Z,2.90
2022-11-10T19:18:18.032Z,3.78
2022-11-10T19:20:44.700Z,2.70
2022-11-10T19:23:11.391Z,2.92
2022-11-10T19:25:38.120Z,4.20
2022-11-10T19:28:04.750Z,3.40
2022-11-10T19:30:31.534Z,3.30
2022-11-10T19:32:58.143Z,3.20
2022-11-10T19:35:24.798Z,3.20
2022-11-10T19:37:53.971Z,3.28
2022-11-10T19:40:21.272Z,2.95
2022-11-10T19:42:48.224Z,2.45
2022-11-10T19:45:15.503Z,3.10
2022-11-10T19:47:42.635Z,2.85
2022-11-10T19:50:09.473Z,2.70
2022-11-10T19:52:36.094Z,2.92
2022-11-10T19:55:02.762Z,2.72
2022-11-10T19:57:29.377Z,2.97
2022-11-10T19:59:56.141Z,2.70
2022-11-10T20:02:22.732Z,3.53
2022-11-10T20:05:08.184Z,3.15
2022-11-10T20:07:53.545Z,3.10
2022-11-10T20:10:20.193Z,2.97
2022-11-10T20:12:46.925Z,3.35
2022-11-10T20:15:13.696Z,3.33
2022-11-10T20:17:40.405Z,3.35
2022-11-10T20:20:07.688Z,3.30
2022-11-10T20:22:34.678Z,2.88
2022-11-10T20:25:01.444Z,3.00
2022-11-10T20:27:28.895Z,3.30
2022-11-10T20:29:55.726Z,3.28
2022-11-10T20:32:22.417Z,3.60
2022-11-10T20:34:49.050Z,3.03
2022-11-10T20:37:15.645Z,3.13
2022-11-10T20:39:42.245Z,3.33
2022-11-10T20:42:10.366Z,2.90
2022-11-10T20:44:37.047Z,3.50
2022-11-10T20:47:04.467Z,3.35
2022-11-10T20:49:31.136Z,3.65
2022-11-10T20:51:59.690Z,3.10
2022-11-10T20:54:26.976Z,3.30
2022-11-10T20:56:54.100Z,3.35
2022-11-10T20:59:20.780Z,3.22
2022-11-10T21:01:47.526Z,3.63
2022-11-10T21:04:14.269Z,3.15
2022-11-10T21:06:41.081Z,3.40
2022-11-10T21:09:08.059Z,3.65
2022-11-10T21:11:53.714Z,3.40
2022-11-10T21:14:20.313Z,3.35
2022-11-10T21:16:46.886Z,3.90
2022-11-10T21:19:13.527Z,3.67
2022-11-10T21:21:40.113Z,4.00
2022-11-10T21:24:07.746Z,3.70
2022-11-10T21:26:35.648Z,2.95
2022-11-10T21:29:03.644Z,3.63
2022-11-10T21:31:30.880Z,3.40
2022-11-10T21:33:58.618Z,3.70
2022-11-10T21:36:29.470Z,3.63
2022-11-10T21:38:57.549Z,3.10
2022-11-10T21:41:24.749Z,3.85
2022-11-10T21:43:51.359Z,3.90
2022-11-10T21:46:18.127Z,4.07
2022-11-10T21:48:44.902Z,3.50
2022-11-10T21:51:13.975Z,4.32
2022-11-10T21:53:41.829Z,4.65
2022-11-10T21:56:10.369Z,4.50
2022-11-10T21:58:37.940Z,4.68
2022-11-10T22:01:06.163Z,4.57
2022-11-10T22:03:34.122Z,4.30
2022-11-10T22:06:05.439Z,3.72
2022-11-10T22:08:32.534Z,4.10
2022-11-10T22:11:18.203Z,4.70
2022-11-10T22:14:03.614Z,4.95
2022-11-10T22:17:06.682Z,4.50
2022-11-10T22:19:34.908Z,4.72
2022-11-10T22:22:04.042Z,4.20
2022-11-10T22:24:31.100Z,5.05
2022-11-10T22:27:00.349Z,4.90
2022-11-10T22:29:31.705Z,4.47
2022-11-10T22:31:59.819Z,3.72
2022-11-10T22:34:26.574Z,4.60
2022-11-10T22:36:54.620Z,4.57
2022-11-10T22:39:21.604Z,4.88
2022-11-10T22:42:06.918Z,4.75
2022-11-10T22:44:33.622Z,4.45
2022-11-10T22:47:00.317Z,5.03
2022-11-10T22:49:26.938Z,5.05
2022-11-10T22:51:56.625Z,5.50
2022-11-10T22:54:24.812Z,5.20
2022-11-10T22:56:51.796Z,5.30
2022-11-10T22:59:19.328Z,4.38
2022-11-10T23:01:46.307Z,4.40
2022-11-10T23:04:13.712Z,5.18
2022-11-10T23:06:40.407Z,4.85
2022-11-10T23:09:07.564Z,5.00
2022-11-10T23:11:34.492Z,5.10
2022-11-10T23:14:01.203Z,5.00
2022-11-10T23:16:31.753Z,4.97
2022-11-10T23:18:59.003Z,5.20
2022-11-10T23:21:28.057Z,5.60
2022-11-10T23:23:55.143Z,5.40
2022-11-10T23:26:27.482Z,4.90
2022-11-10T23:28:54.206Z,5.35
2022-11-10T23:31:23.673Z,5.15
2022-11-10T23:33:54.007Z,4.82
2022-11-10T23:36:22.813Z,4.53
